sensor_id;sensor_type;location;lat;lon;timestamp;pressure;altitude;pressure_sealevel;temperature;humidity
22031;BME280;11179;52.106;21.024;2023-08-21T00:00:10;100779.44;;;21.82;66.24
22031;BME280;11179;52.106;21.024;2023-08-21T00:02:38;100764.25;;;21.74;66.57
22031;BME280;11179;52.106;21.024;2023-08-21T00:05:04;100774.94;;;21.72;66.79
22031;BME280;11179;52.106;21.024;2023-08-21T00:07:29;100784.00;;;21.69;66.94
22031;BME280;11179;52.106;21.024;2023-08-21T00:09:54;100781.84;;;21.66;66.83
22031;BME280;11179;52.106;21.024;2023-08-21T00:12:19;100769.13;;;21.60;67.09
22031;BME280;11179;52.106;21.024;2023-08-21T00:14:45;100775.72;;;21.64;66.99
22031;BME280;11179;52.106;21.024;2023-08-21T00:17:10;100773.06;;;21.59;66.98
22031;BME280;11179;52.106;21.024;2023-08-21T00:19:35;100778.84;;;21.63;67.18
22031;BME280;11179;52.106;21.024;2023-08-21T00:22:01;100777.50;;;21.60;67.13
22031;BME280;11179;52.106;21.024;2023-08-21T00:24:26;100781.47;;;21.59;67.43
22031;BME280;11179;52.106;21.024;2023-08-21T00:26:51;100777.69;;;21.55;67.10
22031;BME280;11179;52.106;21.024;2023-08-21T00:29:17;100776.66;;;21.51;67.29
22031;BME280;11179;52.106;21.024;2023-08-21T00:31:42;100769.41;;;21.50;67.62
22031;BME280;11179;52.106;21.024;2023-08-21T00:34:07;100775.63;;;21.47;67.48
22031;BME280;11179;52.106;21.024;2023-08-21T00:36:33;100772.97;;;21.42;67.81
22031;BME280;11179;52.106;21.024;2023-08-21T00:38:58;100776.91;;;21.41;67.70
22031;BME280;11179;52.106;21.024;2023-08-21T00:41:23;100775.09;;;21.36;67.81
22031;BME280;11179;52.106;21.024;2023-08-21T00:43:49;100777.06;;;21.36;67.80
22031;BME280;11179;52.106;21.024;2023-08-21T00:46:15;100782.13;;;21.34;68.27
22031;BME280;11179;52.106;21.024;2023-08-21T00:48:40;100786.88;;;21.33;68.24
22031;BME280;11179;52.106;21.024;2023-08-21T00:51:06;100781.13;;;21.30;67.94
22031;BME280;11179;52.106;21.024;2023-08-21T00:53:32;100778.66;;;21.28;68.33
22031;BME280;11179;52.106;21.024;2023-08-21T00:55:58;100786.22;;;21.28;68.26
22031;BME280;11179;52.106;21.024;2023-08-21T00:58:23;100779.63;;;21.24;68.47
22031;BME280;11179;52.106;21.024;2023-08-21T01:00:49;100783.88;;;21.21;68.60
22031;BME280;11179;52.106;21.024;2023-08-21T01:03:18;100794.84;;;21.18;68.59
22031;BME280;11179;52.106;21.024;2023-08-21T01:05:43;100799.59;;;21.17;68.40
22031;BME280;11179;52.106;21.024;2023-08-21T01:08:23;100795.50;;;21.15;68.51
22031;BME280;11179;52.106;21.024;2023-08-21T01:10:58;100793.34;;;21.12;68.78
22031;BME280;11179;52.106;21.024;2023-08-21T01:13:40;100792.84;;;21.09;68.57
22031;BME280;11179;52.106;21.024;2023-08-21T01:16:10;100788.38;;;21.08;68.74
22031;BME280;11179;52.106;21.024;2023-08-21T01:18:36;100787.06;;;21.06;68.59
22031;BME280;11179;52.106;21.024;2023-08-21T01:21:04;100787.06;;;21.06;68.72
22031;BME280;11179;52.106;21.024;2023-08-21T01:23:36;100792.94;;;21.04;68.77
22031;BME280;11179;52.106;21.024;2023-08-21T01:26:03;100792.13;;;21.04;68.89
22031;BME280;11179;52.106;21.024;2023-08-21T01:28:29;100796.91;;;21.03;68.91
22031;BME280;11179;52.106;21.024;2023-08-21T01:31:08;100796.41;;;21.01;69.01
22031;BME280;11179;52.106;21.024;2023-08-21T01:33:42;100790.63;;;20.98;69.04
22031;BME280;11179;52.106;21.024;2023-08-21T01:36:09;100799.63;;;20.95;69.17
22031;BME280;11179;52.106;21.024;2023-08-21T01:38:35;100794.34;;;20.93;69.27
22031;BME280;11179;52.106;21.024;2023-08-21T01:41:01;100797.28;;;20.88;69.31
22031;BME280;11179;52.106;21.024;2023-08-21T01:43:27;100798.75;;;20.86;69.87
22031;BME280;11179;52.106;21.024;2023-08-21T01:45:52;100788.53;;;20.81;69.56
22031;BME280;11179;52.106;21.024;2023-08-21T01:48:18;100796.06;;;20.81;69.56
22031;BME280;11179;52.106;21.024;2023-08-21T01:50:43;100800.81;;;20.80;69.79
22031;BME280;11179;52.106;21.024;2023-08-21T01:53:08;100789.16;;;20.78;70.11
22031;BME280;11179;52.106;21.024;2023-08-21T01:55:33;100793.59;;;20.79;70.08
22031;BME280;11179;52.106;21.024;2023-08-21T01:57:59;100790.81;;;20.79;70.27
22031;BME280;11179;52.106;21.024;2023-08-21T02:00:24;100782.44;;;20.79;70.18
22031;BME280;11179;52.106;21.024;2023-08-21T02:02:49;100788.84;;;20.80;70.61
22031;BME280;11179;52.106;21.024;2023-08-21T02:05:15;100786.69;;;20.77;70.51
22031;BME280;11179;52.106;21.024;2023-08-21T02:07:40;100789.16;;;20.78;70.71
22031;BME280;11179;52.106;21.024;2023-08-21T02:10:06;100785.88;;;20.76;71.02
22031;BME280;11179;52.106;21.024;2023-08-21T02:12:31;100790.91;;;20.74;70.88
22031;BME280;11179;52.106;21.024;2023-08-21T02:14:57;100783.16;;;20.71;70.92
22031;BME280;11179;52.106;21.024;2023-08-21T02:17:25;100767.88;;;20.68;70.97
22031;BME280;11179;52.106;21.024;2023-08-21T02:19:50;100780.38;;;20.71;70.91
22031;BME280;11179;52.106;21.024;2023-08-21T02:22:16;100767.69;;;20.65;70.87
22031;BME280;11179;52.106;21.024;2023-08-21T02:24:41;100773.91;;;20.62;71.16
22031;BME280;11179;52.106;21.024;2023-08-21T02:27:06;100769.47;;;20.61;70.80
22031;BME280;11179;52.106;21.024;2023-08-21T02:29:31;100768.94;;;20.59;71.19
22031;BME280;11179;52.106;21.024;2023-08-21T02:31:57;100778.97;;;20.60;71.22
22031;BME280;11179;52.106;21.024;2023-08-21T02:34:22;100786.63;;;20.54;71.49
22031;BME280;11179;52.106;21.024;2023-08-21T02:36:47;100779.72;;;20.52;71.63
22031;BME280;11179;52.106;21.024;2023-08-21T02:39:13;100784.97;;;20.53;71.63
22031;BME280;11179;52.106;21.024;2023-08-21T02:41:38;100787.25;;;20.51;71.67
22031;BME280;11179;52.106;21.024;2023-08-21T02:44:03;100768.69;;;20.47;71.74
22031;BME280;11179;52.106;21.024;2023-08-21T02:46:29;100768.50;;;20.43;72.01
22031;BME280;11179;52.106;21.024;2023-08-21T02:48:54;100757.78;;;20.36;71.72
22031;BME280;11179;52.106;21.024;2023-08-21T02:51:19;100780.78;;;20.42;72.00
22031;BME280;11179;52.106;21.024;2023-08-21T02:53:44;100777.16;;;20.42;71.94
22031;BME280;11179;52.106;21.024;2023-08-21T02:56:10;100775.66;;;20.35;72.05
22031;BME280;11179;52.106;21.024;2023-08-21T02:58:35;100774.31;;;20.33;71.93
22031;BME280;11179;52.106;21.024;2023-08-21T03:01:00;100779.06;;;20.32;71.99
22031;BME280;11179;52.106;21.024;2023-08-21T03:03:26;100768.00;;;20.27;72.26
22031;BME280;11179;52.106;21.024;2023-08-21T03:05:51;100782.78;;;20.28;72.32
22031;BME280;11179;52.106;21.024;2023-08-21T03:08:16;100776.69;;;20.26;72.54
22031;BME280;11179;52.106;21.024;2023-08-21T03:10:42;100780.94;;;20.23;72.53
22031;BME280;11179;52.106;21.024;2023-08-21T03:13:07;100776.81;;;20.21;72.61
22031;BME280;11179;52.106;21.024;2023-08-21T03:15:34;100772.06;;;20.21;72.75
22031;BME280;11179;52.106;21.024;2023-08-21T03:17:59;100767.13;;;20.18;72.99
22031;BME280;11179;52.106;21.024;2023-08-21T03:20:25;100777.13;;;20.19;72.77
22031;BME280;11179;52.106;21.024;2023-08-21T03:22:50;100767.72;;;20.15;72.66
22031;BME280;11179;52.106;21.024;2023-08-21T03:25:15;100770.81;;;20.14;73.27
22031;BME280;11179;52.106;21.024;2023-08-21T03:27:41;100779.72;;;20.16;73.19
22031;BME280;11179;52.106;21.024;2023-08-21T03:30:09;100782.59;;;20.11;72.87
22031;BME280;11179;52.106;21.024;2023-08-21T03:32:35;100792.94;;;20.10;73.26
22031;BME280;11179;52.106;21.024;2023-08-21T03:35:01;100798.53;;;20.10;73.10
22031;BME280;11179;52.106;21.024;2023-08-21T03:37:26;100785.72;;;20.09;73.13
22031;BME280;11179;52.106;21.024;2023-08-21T03:39:51;100783.03;;;20.04;73.45
22031;BME280;11179;52.106;21.024;2023-08-21T03:42:16;100794.56;;;20.11;73.34
22031;BME280;11179;52.106;21.024;2023-08-21T03:44:42;100793.44;;;20.12;73.81
22031;BME280;11179;52.106;21.024;2023-08-21T03:47:07;100790.03;;;20.15;73.64
22031;BME280;11179;52.106;21.024;2023-08-21T03:49:33;100786.94;;;20.17;73.42
22031;BME280;11179;52.106;21.024;2023-08-21T03:51:58;100796.34;;;20.21;73.69
22031;BME280;11179;52.106;21.024;2023-08-21T03:54:23;100791.44;;;20.26;73.85
22031;BME280;11179;52.106;21.024;2023-08-21T03:56:49;100793.63;;;20.29;73.74
22031;BME280;11179;52.106;21.024;2023-08-21T03:59:14;100794.34;;;20.35;74.20
22031;BME280;11179;52.106;21.024;2023-08-21T04:01:39;100787.28;;;20.37;73.95
22031;BME280;11179;52.106;21.024;2023-08-21T04:04:05;100781.81;;;20.46;74.09
22031;BME280;11179;52.106;21.024;2023-08-21T04:06:30;100774.63;;;20.54;74.37
22031;BME280;11179;52.106;21.024;2023-08-21T04:08:55;100780.28;;;20.76;74.50
22031;BME280;11179;52.106;21.024;2023-08-21T04:11:21;100795.88;;;20.99;74.12
22031;BME280;11179;52.106;21.024;2023-08-21T04:13:46;100789.00;;;21.28;74.03
22031;BME280;11179;52.106;21.024;2023-08-21T04:16:11;100797.25;;;21.55;73.51
22031;BME280;11179;52.106;21.024;2023-08-21T04:18:37;100784.66;;;21.84;73.00
22031;BME280;11179;52.106;21.024;2023-08-21T04:21:03;100793.81;;;22.15;72.34
22031;BME280;11179;52.106;21.024;2023-08-21T04:23:29;100786.81;;;22.43;71.79
22031;BME280;11179;52.106;21.024;2023-08-21T04:26:00;100783.66;;;22.79;70.79
22031;BME280;11179;52.106;21.024;2023-08-21T04:28:26;100781.84;;;23.09;70.12
22031;BME280;11179;52.106;21.024;2023-08-21T04:30:51;100769.59;;;23.31;69.42
22031;BME280;11179;52.106;21.024;2023-08-21T04:33:16;100780.88;;;23.61;68.07
22031;BME280;11179;52.106;21.024;2023-08-21T04:35:41;100795.13;;;23.94;67.58
22031;BME280;11179;52.106;21.024;2023-08-21T04:38:07;100797.25;;;23.97;66.58
22031;BME280;11179;52.106;21.024;2023-08-21T04:40:32;100798.47;;;23.78;66.48
22031;BME280;11179;52.106;21.024;2023-08-21T04:42:57;100790.97;;;23.53;66.39
22031;BME280;11179;52.106;21.024;2023-08-21T04:45:23;100804.69;;;23.37;66.63
22031;BME280;11179;52.106;21.024;2023-08-21T04:47:48;100805.00;;;23.53;66.41
22031;BME280;11179;52.106;21.024;2023-08-21T04:50:13;100803.72;;;23.88;65.99
22031;BME280;11179;52.106;21.024;2023-08-21T04:52:41;100795.41;;;24.30;65.30
22031;BME280;11179;52.106;21.024;2023-08-21T04:55:27;100790.50;;;24.69;64.27
22031;BME280;11179;52.106;21.024;2023-08-21T04:57:52;100786.94;;;25.01;63.41
22031;BME280;11179;52.106;21.024;2023-08-21T05:00:17;100782.22;;;25.38;62.49
22031;BME280;11179;52.106;21.024;2023-08-21T05:02:43;100779.84;;;25.73;61.79
22031;BME280;11179;52.106;21.024;2023-08-21T05:05:08;100777.72;;;26.07;60.85
22031;BME280;11179;52.106;21.024;2023-08-21T05:07:34;100790.81;;;26.51;59.79
22031;BME280;11179;52.106;21.024;2023-08-21T05:10:00;100795.31;;;26.80;58.58
22031;BME280;11179;52.106;21.024;2023-08-21T05:12:26;100790.75;;;26.76;58.63
22031;BME280;11179;52.106;21.024;2023-08-21T05:14:52;100801.03;;;26.44;58.57
22031;BME280;11179;52.106;21.024;2023-08-21T05:17:17;100797.78;;;26.05;58.67
22031;BME280;11179;52.106;21.024;2023-08-21T05:19:58;100803.63;;;25.76;58.87
22031;BME280;11179;52.106;21.024;2023-08-21T05:22:23;100803.69;;;25.55;59.09
22031;BME280;11179;52.106;21.024;2023-08-21T05:24:49;100803.22;;;25.41;59.68
22031;BME280;11179;52.106;21.024;2023-08-21T05:27:14;100801.28;;;25.32;59.75
22031;BME280;11179;52.106;21.024;2023-08-21T05:29:39;100796.25;;;25.26;59.59
22031;BME280;11179;52.106;21.024;2023-08-21T05:32:05;100809.69;;;25.20;59.58
22031;BME280;11179;52.106;21.024;2023-08-21T05:34:30;100799.56;;;25.07;59.96
22031;BME280;11179;52.106;21.024;2023-08-21T05:36:56;100823.31;;;24.98;60.18
22031;BME280;11179;52.106;21.024;2023-08-21T05:39:21;100807.75;;;24.79;60.21
22031;BME280;11179;52.106;21.024;2023-08-21T05:41:47;100808.31;;;24.73;60.51
22031;BME280;11179;52.106;21.024;2023-08-21T05:44:12;100812.03;;;24.77;60.51
22031;BME280;11179;52.106;21.024;2023-08-21T05:46:37;100818.38;;;24.74;60.91
22031;BME280;11179;52.106;21.024;2023-08-21T05:49:03;100823.28;;;24.77;61.16
22031;BME280;11179;52.106;21.024;2023-08-21T05:51:29;100826.31;;;24.72;60.83
22031;BME280;11179;52.106;21.024;2023-08-21T05:53:54;100828.78;;;24.73;61.22
22031;BME280;11179;52.106;21.024;2023-08-21T05:56:19;100829.38;;;24.79;61.15
22031;BME280;11179;52.106;21.024;2023-08-21T05:58:45;100829.47;;;24.70;61.23
22031;BME280;11179;52.106;21.024;2023-08-21T06:01:11;100828.50;;;24.66;61.13
22031;BME280;11179;52.106;21.024;2023-08-21T06:03:36;100828.97;;;24.68;61.38
22031;BME280;11179;52.106;21.024;2023-08-21T06:06:01;100829.81;;;24.69;61.21
22031;BME280;11179;52.106;21.024;2023-08-21T06:08:27;100830.13;;;24.67;61.14
22031;BME280;11179;52.106;21.024;2023-08-21T06:10:52;100835.50;;;24.60;61.59
22031;BME280;11179;52.106;21.024;2023-08-21T06:13:18;100828.22;;;24.59;61.55
22031;BME280;11179;52.106;21.024;2023-08-21T06:15:43;100849.53;;;24.81;61.06
22031;BME280;11179;52.106;21.024;2023-08-21T06:18:10;100844.75;;;25.02;60.91
22031;BME280;11179;52.106;21.024;2023-08-21T06:20:35;100853.44;;;25.09;60.47
22031;BME280;11179;52.106;21.024;2023-08-21T06:23:01;100852.81;;;25.04;60.43
22031;BME280;11179;52.106;21.024;2023-08-21T06:25:26;100842.88;;;24.85;60.82
22031;BME280;11179;52.106;21.024;2023-08-21T06:27:51;100849.53;;;24.81;60.77
22031;BME280;11179;52.106;21.024;2023-08-21T06:30:17;100866.44;;;24.72;61.20
22031;BME280;11179;52.106;21.024;2023-08-21T06:32:43;100861.50;;;24.69;61.33
22031;BME280;11179;52.106;21.024;2023-08-21T06:35:09;100865.13;;;24.70;61.11
22031;BME280;11179;52.106;21.024;2023-08-21T06:37:34;100863.00;;;24.67;61.45
22031;BME280;11179;52.106;21.024;2023-08-21T06:39:59;100864.56;;;24.55;61.82
22031;BME280;11179;52.106;21.024;2023-08-21T06:42:25;100879.44;;;24.56;61.93
22031;BME280;11179;52.106;21.024;2023-08-21T06:44:50;100886.44;;;24.50;62.14
22031;BME280;11179;52.106;21.024;2023-08-21T06:47:15;100875.06;;;24.46;62.07
22031;BME280;11179;52.106;21.024;2023-08-21T06:49:41;100874.56;;;24.44;62.32
22031;BME280;11179;52.106;21.024;2023-08-21T06:52:06;100903.41;;;24.53;62.34
22031;BME280;11179;52.106;21.024;2023-08-21T06:54:31;100899.59;;;24.58;62.42
22031;BME280;11179;52.106;21.024;2023-08-21T06:56:57;100909.16;;;24.57;62.49
22031;BME280;11179;52.106;21.024;2023-08-21T06:59:23;100929.47;;;24.54;62.48
22031;BME280;11179;52.106;21.024;2023-08-21T07:01:48;100916.00;;;24.47;62.66
22031;BME280;11179;52.106;21.024;2023-08-21T07:04:15;100930.38;;;24.37;62.66
22031;BME280;11179;52.106;21.024;2023-08-21T07:06:40;100940.00;;;24.27;62.79
22031;BME280;11179;52.106;21.024;2023-08-21T07:09:05;100948.13;;;24.20;62.91
22031;BME280;11179;52.106;21.024;2023-08-21T07:11:31;100940.88;;;24.11;63.14
22031;BME280;11179;52.106;21.024;2023-08-21T07:13:56;100946.19;;;24.04;63.55
22031;BME280;11179;52.106;21.024;2023-08-21T07:16:22;100963.03;;;24.04;63.55
22031;BME280;11179;52.106;21.024;2023-08-21T07:18:48;100962.56;;;23.93;63.75
22031;BME280;11179;52.106;21.024;2023-08-21T07:21:13;100957.47;;;23.86;63.78
22031;BME280;11179;52.106;21.024;2023-08-21T07:23:38;100961.41;;;23.85;63.92
22031;BME280;11179;52.106;21.024;2023-08-21T07:26:04;100963.56;;;23.88;63.96
22031;BME280;11179;52.106;21.024;2023-08-21T07:28:32;100961.75;;;23.92;64.39
22031;BME280;11179;52.106;21.024;2023-08-21T07:30:58;100957.78;;;23.94;64.54
22031;BME280;11179;52.106;21.024;2023-08-21T07:33:26;100951.50;;;23.97;64.89
22031;BME280;11179;52.106;21.024;2023-08-21T07:36:00;100950.53;;;23.92;64.90
22031;BME280;11179;52.106;21.024;2023-08-21T07:38:25;100949.03;;;23.95;65.01
22031;BME280;11179;52.106;21.024;2023-08-21T07:40:52;100957.75;;;24.02;64.81
22031;BME280;11179;52.106;21.024;2023-08-21T07:43:26;100963.34;;;24.02;64.88
22031;BME280;11179;52.106;21.024;2023-08-21T07:45:51;100964.34;;;24.06;65.16
22031;BME280;11179;52.106;21.024;2023-08-21T07:48:17;100955.44;;;24.04;65.16
22031;BME280;11179;52.106;21.024;2023-08-21T07:50:50;100950.97;;;24.03;65.39
22031;BME280;11179;52.106;21.024;2023-08-21T07:53:16;100948.34;;;24.07;65.57
22031;BME280;11179;52.106;21.024;2023-08-21T07:55:41;100938.06;;;24.11;65.92
22031;BME280;11179;52.106;21.024;2023-08-21T07:58:06;100945.44;;;24.24;65.74
22031;BME280;11179;52.106;21.024;2023-08-21T08:00:32;100931.59;;;24.36;65.76
22031;BME280;11179;52.106;21.024;2023-08-21T08:02:57;100926.53;;;24.50;65.24
22031;BME280;11179;52.106;21.024;2023-08-21T08:05:23;100936.16;;;24.70;65.18
22031;BME280;11179;52.106;21.024;2023-08-21T08:07:48;100933.75;;;24.89;64.46
22031;BME280;11179;52.106;21.024;2023-08-21T08:10:13;100926.56;;;25.01;64.86
22031;BME280;11179;52.106;21.024;2023-08-21T08:12:41;100929.22;;;25.18;64.04
22031;BME280;11179;52.106;21.024;2023-08-21T08:15:07;100925.25;;;25.40;63.96
22031;BME280;11179;52.106;21.024;2023-08-21T08:17:33;100929.28;;;25.51;63.37
22031;BME280;11179;52.106;21.024;2023-08-21T08:19:58;100926.59;;;25.54;63.18
22031;BME280;11179;52.106;21.024;2023-08-21T08:22:23;100916.78;;;25.60;62.63
22031;BME280;11179;52.106;21.024;2023-08-21T08:24:51;100915.78;;;25.77;62.22
22031;BME280;11179;52.106;21.024;2023-08-21T08:27:17;100904.75;;;25.72;61.71
22031;BME280;11179;52.106;21.024;2023-08-21T08:29:42;100894.78;;;25.62;61.97
22031;BME280;11179;52.106;21.024;2023-08-21T08:32:07;100905.19;;;25.62;61.67
22031;BME280;11179;52.106;21.024;2023-08-21T08:34:32;100902.66;;;25.69;61.55
22031;BME280;11179;52.106;21.024;2023-08-21T08:36:58;100916.50;;;25.86;61.09
22031;BME280;11179;52.106;21.024;2023-08-21T08:39:23;100917.97;;;26.05;60.80
22031;BME280;11179;52.106;21.024;2023-08-21T08:41:58;100924.41;;;26.17;59.91
22031;BME280;11179;52.106;21.024;2023-08-21T08:44:25;100922.25;;;26.23;59.67
22031;BME280;11179;52.106;21.024;2023-08-21T08:46:52;100918.94;;;26.33;59.51
22031;BME280;11179;52.106;21.024;2023-08-21T08:49:17;100913.53;;;26.40;58.81
22031;BME280;11179;52.106;21.024;2023-08-21T08:51:43;100909.31;;;26.58;58.83
22031;BME280;11179;52.106;21.024;2023-08-21T08:54:09;100905.56;;;27.19;57.70
22031;BME280;11179;52.106;21.024;2023-08-21T08:56:35;100901.38;;;27.84;55.64
22031;BME280;11179;52.106;21.024;2023-08-21T08:59:01;100897.59;;;28.39;54.69
22031;BME280;11179;52.106;21.024;2023-08-21T09:01:27;100883.66;;;28.62;54.03
22031;BME280;11179;52.106;21.024;2023-08-21T09:03:52;100878.28;;;28.76;53.54
22031;BME280;11179;52.106;21.024;2023-08-21T09:06:17;100883.78;;;28.69;53.03
22031;BME280;11179;52.106;21.024;2023-08-21T09:08:53;100873.63;;;28.84;52.17
22031;BME280;11179;52.106;21.024;2023-08-21T09:11:19;100868.38;;;29.21;51.52
22031;BME280;11179;52.106;21.024;2023-08-21T09:13:45;100877.28;;;29.62;51.16
22031;BME280;11179;52.106;21.024;2023-08-21T09:16:10;100874.81;;;30.02;50.35
22031;BME280;11179;52.106;21.024;2023-08-21T09:18:36;100882.84;;;30.46;49.50
22031;BME280;11179;52.106;21.024;2023-08-21T09:21:05;100878.91;;;30.80;48.25
22031;BME280;11179;52.106;21.024;2023-08-21T09:23:31;100884.41;;;30.96;47.66
22031;BME280;11179;52.106;21.024;2023-08-21T09:25:56;100881.38;;;31.12;47.66
22031;BME280;11179;52.106;21.024;2023-08-21T09:28:22;100875.31;;;31.13;47.40
22031;BME280;11179;52.106;21.024;2023-08-21T09:30:53;100871.50;;;31.32;46.50
22031;BME280;11179;52.106;21.024;2023-08-21T09:33:23;100871.72;;;31.50;45.88
22031;BME280;11179;52.106;21.024;2023-08-21T09:35:52;100869.03;;;31.64;44.82
22031;BME280;11179;52.106;21.024;2023-08-21T09:38:18;100871.75;;;31.57;44.78
22031;BME280;11179;52.106;21.024;2023-08-21T09:40:53;100862.44;;;31.56;44.57
22031;BME280;11179;52.106;21.024;2023-08-21T09:43:20;100858.66;;;31.45;43.95
22031;BME280;11179;52.106;21.024;2023-08-21T09:45:48;100858.50;;;31.31;43.94
22031;BME280;11179;52.106;21.024;2023-08-21T09:48:14;100869.84;;;31.31;44.08
22031;BME280;11179;52.106;21.024;2023-08-21T09:50:39;100860.19;;;31.36;43.85
22031;BME280;11179;52.106;21.024;2023-08-21T09:53:08;100863.50;;;31.41;43.33
22031;BME280;11179;52.106;21.024;2023-08-21T09:55:34;100868.16;;;31.60;42.85
22031;BME280;11179;52.106;21.024;2023-08-21T09:58:00;100866.19;;;31.64;41.90
22031;BME280;11179;52.106;21.024;2023-08-21T10:00:37;100862.19;;;31.69;40.64
22031;BME280;11179;52.106;21.024;2023-08-21T10:03:04;100869.13;;;31.75;40.26
22031;BME280;11179;52.106;21.024;2023-08-21T10:05:31;100864.78;;;31.84;40.54
22031;BME280;11179;52.106;21.024;2023-08-21T10:07:59;100855.88;;;31.86;40.38
22031;BME280;11179;52.106;21.024;2023-08-21T10:10:25;100859.22;;;31.98;39.16
22031;BME280;11179;52.106;21.024;2023-08-21T10:12:51;100857.88;;;31.82;38.29
22031;BME280;11179;52.106;21.024;2023-08-21T10:15:16;100865.59;;;31.85;38.44
22031;BME280;11179;52.106;21.024;2023-08-21T10:17:42;100864.91;;;31.95;37.41
22031;BME280;11179;52.106;21.024;2023-08-21T10:20:09;100860.38;;;31.90;37.03
22031;BME280;11179;52.106;21.024;2023-08-21T10:22:45;100860.81;;;31.92;36.72
22031;BME280;11179;52.106;21.024;2023-08-21T10:25:19;100861.63;;;31.93;36.32
22031;BME280;11179;52.106;21.024;2023-08-21T10:27:55;100861.59;;;31.52;36.38
22031;BME280;11179;52.106;21.024;2023-08-21T10:32:48;100854.63;;;31.46;36.86
22031;BME280;11179;52.106;21.024;2023-08-21T10:35:32;100856.25;;;31.47;36.40
22031;BME280;11179;52.106;21.024;2023-08-21T10:40:39;100847.28;;;31.79;35.54
22031;BME280;11179;52.106;21.024;2023-08-21T10:43:04;100859.13;;;31.88;35.14
22031;BME280;11179;52.106;21.024;2023-08-21T10:45:54;100867.78;;;32.02;35.37
22031;BME280;11179;52.106;21.024;2023-08-21T10:48:20;100858.09;;;32.07;34.45
22031;BME280;11179;52.106;21.024;2023-08-21T10:50:46;100852.84;;;32.09;33.89
22031;BME280;11179;52.106;21.024;2023-08-21T10:53:12;100851.59;;;32.06;33.63
22031;BME280;11179;52.106;21.024;2023-08-21T10:55:38;100859.13;;;31.88;33.25
22031;BME280;11179;52.106;21.024;2023-08-21T10:58:03;100862.28;;;31.76;32.96
22031;BME280;11179;52.106;21.024;2023-08-21T11:00:29;100872.41;;;31.77;33.43
22031;BME280;11179;52.106;21.024;2023-08-21T11:02:54;100852.81;;;31.65;33.36
22031;BME280;11179;52.106;21.024;2023-08-21T11:05:19;100862.91;;;31.62;33.42
22031;BME280;11179;52.106;21.024;2023-08-21T11:07:47;100861.66;;;31.59;33.31
22031;BME280;11179;52.106;21.024;2023-08-21T11:10:17;100852.56;;;31.43;33.52
22031;BME280;11179;52.106;21.024;2023-08-21T11:12:53;100860.75;;;31.48;33.20
22031;BME280;11179;52.106;21.024;2023-08-21T11:15:19;100856.34;;;31.54;33.35
22031;BME280;11179;52.106;21.024;2023-08-21T11:18:01;100841.25;;;31.47;33.33
22031;BME280;11179;52.106;21.024;2023-08-21T11:20:31;100852.66;;;31.50;33.39
22031;BME280;11179;52.106;21.024;2023-08-21T11:23:00;100855.41;;;31.43;33.59
22031;BME280;11179;52.106;21.024;2023-08-21T11:25:33;100850.38;;;31.30;33.37
22031;BME280;11179;52.106;21.024;2023-08-21T11:28:00;100848.34;;;31.26;33.58
22031;BME280;11179;52.106;21.024;2023-08-21T11:30:27;100858.50;;;31.31;33.37
22031;BME280;11179;52.106;21.024;2023-08-21T11:33:12;100845.19;;;31.02;33.64
22031;BME280;11179;52.106;21.024;2023-08-21T11:35:39;100845.13;;;30.98;33.87
22031;BME280;11179;52.106;21.024;2023-08-21T11:38:05;100849.63;;;31.03;33.65
22031;BME280;11179;52.106;21.024;2023-08-21T11:40:30;100852.69;;;30.87;33.83
22031;BME280;11179;52.106;21.024;2023-08-21T11:43:02;100845.66;;;30.77;34.02
22031;BME280;11179;52.106;21.024;2023-08-21T11:45:29;100848.47;;;30.77;34.18
22031;BME280;11179;52.106;21.024;2023-08-21T11:47:57;100843.63;;;30.78;32.80
22031;BME280;11179;52.106;21.024;2023-08-21T11:50:23;100841.88;;;30.70;31.72
22031;BME280;11179;52.106;21.024;2023-08-21T11:52:52;100845.78;;;30.58;31.66
22031;BME280;11179;52.106;21.024;2023-08-21T11:55:18;100835.63;;;30.57;31.67
22031;BME280;11179;52.106;21.024;2023-08-21T11:57:48;100846.69;;;30.66;31.43
22031;BME280;11179;52.106;21.024;2023-08-21T12:00:14;100847.06;;;30.64;32.38
22031;BME280;11179;52.106;21.024;2023-08-21T12:02:48;100847.16;;;30.71;31.61
22031;BME280;11179;52.106;21.024;2023-08-21T12:05:18;100844.13;;;30.57;31.29
22031;BME280;11179;52.106;21.024;2023-08-21T12:07:45;100846.44;;;30.48;31.11
22031;BME280;11179;52.106;21.024;2023-08-21T12:10:10;100838.25;;;30.43;31.55
22031;BME280;11179;52.106;21.024;2023-08-21T12:12:35;100837.66;;;30.30;31.34
22031;BME280;11179;52.106;21.024;2023-08-21T12:15:01;100838.69;;;30.18;31.72
22031;BME280;11179;52.106;21.024;2023-08-21T12:17:26;100844.00;;;30.20;31.62
22031;BME280;11179;52.106;21.024;2023-08-21T12:19:51;100833.38;;;30.17;31.76
22031;BME280;11179;52.106;21.024;2023-08-21T12:22:16;100836.53;;;30.12;31.74
22031;BME280;11179;52.106;21.024;2023-08-21T12:24:42;100832.84;;;30.08;31.49
22031;BME280;11179;52.106;21.024;2023-08-21T12:27:07;100821.31;;;29.97;31.68
22031;BME280;11179;52.106;21.024;2023-08-21T12:29:33;100830.91;;;29.89;31.41
22031;BME280;11179;52.106;21.024;2023-08-21T12:31:59;100832.09;;;29.88;31.96
22031;BME280;11179;52.106;21.024;2023-08-21T12:34:24;100830.53;;;29.91;31.42
22031;BME280;11179;52.106;21.024;2023-08-21T12:36:50;100834.09;;;29.87;31.07
22031;BME280;11179;52.106;21.024;2023-08-21T12:39:16;100832.91;;;29.88;31.09
22031;BME280;11179;52.106;21.024;2023-08-21T12:41:42;100849.06;;;29.88;31.04